Time;durP1;ratioP1;P1;durP2;ratioP2;P2;SDS_P1;SDS_P2;PMS_P1;PMS_P2;Temp;Humidity;BMP_temperature;BMP_pressure;BME280_temperature;BME280_humidity;BME280_pressure;Samples;Min_cycle;Max_cycle;Signal;HPM_P1;HPM_P2
2021/04/22 00:01:55;;;;;;;10.70;6.60;;;23.20;38.60;;;;;;6209728;28;80488;-64
2021/04/22 00:04:55;;;;;;;11.55;7.05;;;23.20;38.50;;;;;;6208762;28;80575;-64
2021/04/22 00:07:56;;;;;;;9.23;6.18;;;23.20;38.60;;;;;;6207890;28;83702;-63
2021/04/22 00:10:57;;;;;;;8.90;6.50;;;23.20;38.90;;;;;;6221833;28;83160;-64
2021/04/22 00:13:57;;;;;;;10.52;7.15;;;23.10;38.50;;;;;;6204914;28;80976;-64
2021/04/22 00:16:58;;;;;;;11.73;6.70;;;23.20;38.80;;;;;;6202660;28;80584;-65
2021/04/22 00:19:59;;;;;;;10.40;6.65;;;23.20;38.70;;;;;;6206685;28;81240;-64
2021/04/22 00:22:59;;;;;;;10.55;6.88;;;23.20;38.60;;;;;;6212142;28;81585;-64
2021/04/22 00:26:00;;;;;;;10.52;6.80;;;23.10;38.40;;;;;;6221458;27;80411;-64
2021/04/22 00:29:00;;;;;;;8.95;6.47;;;23.20;39.30;;;;;;6211259;28;81625;-64
2021/04/22 00:32:01;;;;;;;8.88;6.57;;;23.10;38.60;;;;;;6216273;28;81025;-64
2021/04/22 00:35:01;;;;;;;10.68;6.72;;;23.10;38.40;;;;;;6196394;28;80465;-64
2021/04/22 00:38:02;;;;;;;8.98;6.30;;;23.10;38.90;;;;;;6200242;28;80948;-65
2021/04/22 00:41:03;;;;;;;11.20;7.32;;;23.20;38.40;;;;;;6199641;28;80323;-65
2021/04/22 00:44:05;;;;;;;9.32;6.43;;;23.20;38.90;;;;;;6205009;28;80451;-63
2021/04/22 00:47:06;;;;;;;12.30;6.90;;;23.10;38.50;;;;;;6203741;28;80312;-63
2021/04/22 00:50:06;;;;;;;9.68;6.50;;;23.20;39.00;;;;;;6219725;27;81657;-63
2021/04/22 00:53:07;;;;;;;10.00;6.70;;;23.10;39.40;;;;;;6208208;28;83961;-63
2021/04/22 00:56:07;;;;;;;10.55;6.95;;;23.20;38.40;;;;;;6221560;28;83151;-63
2021/04/22 00:59:08;;;;;;;10.32;6.88;;;23.10;38.30;;;;;;6213652;28;80563;-64
2021/04/22 01:02:08;;;;;;;7.57;6.20;;;23.10;38.90;;;;;;6221307;27;80695;-64
2021/04/22 01:05:09;;;;;;;9.30;6.97;;;23.10;38.10;;;;;;6207144;28;89481;-66
2021/04/22 01:08:09;;;;;;;9.88;6.60;;;23.20;38.80;;;;;;6215350;28;80341;-64
2021/04/22 01:11:12;;;;;;;11.32;6.65;;;23.20;39.00;;;;;;6215211;27;81140;-63
2021/04/22 01:14:13;;;;;;;11.65;7.30;;;23.20;38.80;;;;;;6202058;28;80402;-64
2021/04/22 01:17:13;;;;;;;10.43;7.18;;;23.10;38.80;;;;;;6203725;28;80339;-65
2021/04/22 01:20:14;;;;;;;11.05;7.25;;;23.10;38.60;;;;;;6207731;27;81878;-64
2021/04/22 01:23:14;;;;;;;10.25;6.85;;;23.10;38.90;;;;;;6208414;28;80786;-65
2021/04/22 01:26:15;;;;;;;9.77;6.82;;;23.10;38.40;;;;;;6201806;28;80600;-64
2021/04/22 01:29:15;;;;;;;10.82;7.55;;;23.10;38.90;;;;;;6201505;28;80872;-64
2021/04/22 01:32:16;;;;;;;13.05;7.65;;;23.10;38.60;;;;;;6207813;27;80448;-65
2021/04/22 01:35:16;;;;;;;10.63;7.20;;;23.20;38.30;;;;;;6206960;28;80626;-65
2021/04/22 01:38:17;;;;;;;11.10;7.47;;;23.10;38.00;;;;;;6202757;28;80595;-63
2021/04/22 01:41:17;;;;;;;13.30;7.97;;;23.10;38.00;;;;;;6199237;28;80483;-64
2021/04/22 01:44:18;;;;;;;12.82;8.57;;;23.10;38.60;;;;;;6211084;27;81768;-63
2021/04/22 01:47:18;;;;;;;13.48;8.45;;;23.10;38.60;;;;;;6218378;27;80439;-64
2021/04/22 01:50:19;;;;;;;14.20;9.10;;;23.10;38.10;;;;;;6197135;28;81033;-64
2021/04/22 01:53:19;;;;;;;11.52;8.52;;;23.10;38.50;;;;;;6208306;28;80864;-60
2021/04/22 01:56:20;;;;;;;12.60;8.45;;;23.10;38.50;;;;;;6205374;27;80777;-64
2021/04/22 01:59:20;;;;;;;12.70;8.85;;;23.10;37.90;;;;;;6216437;27;81404;-63
2021/04/22 02:02:21;;;;;;;14.02;9.27;;;23.10;38.50;;;;;;6202936;28;81179;-63
2021/04/22 02:05:25;;;;;;;14.73;9.30;;;23.10;37.80;;;;;;6200750;27;80431;-64
2021/04/22 02:08:26;;;;;;;14.82;9.35;;;23.10;38.20;;;;;;6207765;28;80904;-65
2021/04/22 02:11:26;;;;;;;14.93;10.20;;;23.10;38.30;;;;;;6211108;28;80644;-65
2021/04/22 02:14:27;;;;;;;16.65;10.30;;;23.10;38.10;;;;;;6217821;28;83651;-65
2021/04/22 02:17:27;;;;;;;16.17;9.45;;;23.10;38.40;;;;;;6206540;28;83691;-65
2021/04/22 02:20:28;;;;;;;15.90;10.25;;;23.10;38.40;;;;;;6201993;28;83411;-65
2021/04/22 02:23:28;;;;;;;14.75;9.40;;;23.10;38.00;;;;;;6215595;28;83289;-65
2021/04/22 02:26:29;;;;;;;13.50;8.88;;;23.10;38.20;;;;;;6196435;28;83482;-65
2021/04/22 02:29:29;;;;;;;14.88;9.32;;;23.10;38.10;;;;;;6198814;27;80806;-65
2021/04/22 02:32:30;;;;;;;14.88;9.68;;;23.10;38.50;;;;;;6190802;28;81544;-65
2021/04/22 02:35:30;;;;;;;17.80;10.07;;;23.00;38.10;;;;;;6203910;28;80528;-65
2021/04/22 02:38:31;;;;;;;14.98;8.68;;;23.10;38.50;;;;;;6201628;28;83188;-64
2021/04/22 02:41:31;;;;;;;15.02;8.85;;;23.10;38.70;;;;;;6197861;28;84035;-64
2021/04/22 02:44:32;;;;;;;14.43;9.18;;;23.10;38.10;;;;;;6198317;28;80484;-63
2021/04/22 02:47:32;;;;;;;15.85;9.85;;;23.10;38.30;;;;;;6204198;27;80119;-64
2021/04/22 02:50:33;;;;;;;14.20;9.68;;;23.10;38.40;;;;;;6192877;28;81477;-63
2021/04/22 02:53:34;;;;;;;15.50;9.57;;;23.10;38.00;;;;;;6203507;28;80804;-63
2021/04/22 02:56:34;;;;;;;14.90;9.40;;;23.10;37.90;;;;;;6202501;28;81576;-63
2021/04/22 02:59:35;;;;;;;15.35;9.55;;;23.10;38.10;;;;;;6203953;28;81712;-64
2021/04/22 03:02:35;;;;;;;13.52;9.00;;;23.00;38.10;;;;;;6201365;28;81274;-65
2021/04/22 03:05:36;;;;;;;13.80;9.50;;;23.10;38.20;;;;;;6204368;28;80801;-65
2021/04/22 03:08:36;;;;;;;13.48;8.23;;;23.10;38.20;;;;;;6204307;28;80855;-65
2021/04/22 03:11:37;;;;;;;15.20;8.93;;;23.00;38.10;;;;;;6205185;28;83629;-64
2021/04/22 03:14:37;;;;;;;13.05;8.20;;;23.00;37.70;;;;;;6197499;28;81351;-64
2021/04/22 03:17:38;;;;;;;15.38;8.60;;;23.00;38.10;;;;;;6204900;27;80356;-64
2021/04/22 03:20:38;;;;;;;13.93;9.18;;;23.00;38.00;;;;;;6212445;27;80969;-66
2021/04/22 03:23:39;;;;;;;14.18;8.88;;;23.00;38.30;;;;;;6214149;28;81443;-65
2021/04/22 03:26:39;;;;;;;12.93;8.27;;;23.00;38.20;;;;;;6204450;28;81191;-65
2021/04/22 03:29:40;;;;;;;14.93;8.63;;;23.00;37.90;;;;;;6215042;28;81557;-66
2021/04/22 03:32:40;;;;;;;15.07;8.80;;;23.00;38.20;;;;;;6206843;28;80985;-66
2021/04/22 03:35:41;;;;;;;12.48;7.97;;;23.00;38.10;;;;;;6215641;28;80452;-66
2021/04/22 03:38:41;;;;;;;14.88;8.27;;;23.10;38.10;;;;;;6204297;28;81138;-67
2021/04/22 03:41:42;;;;;;;13.45;8.48;;;23.00;38.20;;;;;;6203997;28;84331;-67
2021/04/22 03:44:42;;;;;;;11.23;7.35;;;23.00;38.00;;;;;;6213371;28;80541;-66
2021/04/22 03:47:43;;;;;;;13.32;7.65;;;23.00;38.30;;;;;;6214498;27;81900;-66
2021/04/22 03:50:43;;;;;;;15.40;7.88;;;23.00;38.30;;;;;;6213179;28;81554;-67
2021/04/22 03:53:44;;;;;;;12.13;8.25;;;23.00;38.20;;;;;;6203205;28;80400;-67
2021/04/22 03:56:44;;;;;;;14.45;7.85;;;23.00;38.60;;;;;;6199973;28;80684;-66
2021/04/22 03:59:45;;;;;;;12.50;7.53;;;23.00;38.30;;;;;;6206924;28;80325;-66
2021/04/22 04:02:45;;;;;;;11.63;7.20;;;23.00;38.60;;;;;;6197813;28;80773;-66
2021/04/22 04:05:46;;;;;;;15.68;8.05;;;23.00;38.30;;;;;;6203781;28;81422;-66
2021/04/22 04:08:46;;;;;;;12.63;7.40;;;23.00;38.60;;;;;;6206634;28;81466;-67
2021/04/22 04:11:47;;;;;;;14.00;7.90;;;23.10;38.10;;;;;;6187746;28;80522;-63
2021/04/22 04:14:47;;;;;;;10.60;7.10;;;23.00;38.00;;;;;;6191997;28;83531;-67
2021/04/22 04:17:48;;;;;;;15.43;8.35;;;23.00;38.50;;;;;;6208835;28;80398;-64
2021/04/22 04:20:48;;;;;;;15.70;7.38;;;23.00;39.40;;;;;;6215393;27;80720;-64
2021/04/22 04:23:49;;;;;;;10.93;7.20;;;23.10;38.80;;;;;;6215429;28;81712;-65
2021/04/22 04:26:49;;;;;;;9.35;6.82;;;23.10;38.40;;;;;;6230139;28;81649;-64
2021/04/22 04:29:50;;;;;;;13.82;7.07;;;23.10;39.60;;;;;;6207006;28;80822;-66
2021/04/22 04:32:50;;;;;;;12.20;6.88;;;23.10;39.40;;;;;;6191903;28;83080;-65
2021/04/22 04:35:51;;;;;;;11.20;6.75;;;23.10;39.90;;;;;;6215627;28;81269;-66
2021/04/22 04:38:52;;;;;;;10.68;6.93;;;23.10;39.10;;;;;;6211566;27;80502;-65
2021/04/22 04:41:52;;;;;;;10.48;6.35;;;23.10;39.20;;;;;;6214943;28;80396;-64
2021/04/22 04:44:53;;;;;;;9.10;5.90;;;23.10;39.90;;;;;;6218574;27;80139;-65
2021/04/22 04:47:53;;;;;;;10.68;6.10;;;23.20;41.50;;;;;;6207148;27;80428;-66
2021/04/22 04:50:54;;;;;;;8.65;6.05;;;23.20;43.30;;;;;;6201592;27;81414;-66
2021/04/22 04:53:54;;;;;;;9.70;7.18;;;23.20;44.10;;;;;;6221972;28;80628;-66
2021/04/22 04:56:55;;;;;;;17.60;7.95;;;23.20;44.80;;;;;;6199662;28;81739;-65
2021/04/22 04:59:56;;;;;;;11.70;7.20;;;23.20;44.20;;;;;;6210322;28;80889;-66
2021/04/22 05:02:56;;;;;;;11.88;6.90;;;23.20;43.90;;;;;;6201129;28;80999;-65
2021/04/22 05:05:57;;;;;;;10.48;6.53;;;23.20;44.50;;;;;;6207857;27;81870;-65
2021/04/22 05:08:57;;;;;;;11.45;6.85;;;23.30;44.20;;;;;;6218338;27;80955;-67
2021/04/22 05:11:58;;;;;;;18.20;6.43;;;23.30;44.10;;;;;;6202086;27;80518;-65
2021/04/22 05:14:58;;;;;;;9.32;6.30;;;23.30;44.00;;;;;;6216854;28;80900;-66
2021/04/22 05:17:59;;;;;;;16.60;6.00;;;23.30;44.20;;;;;;6227984;28;80442;-66
2021/04/22 05:20:59;;;;;;;9.48;6.28;;;23.30;43.70;;;;;;6214671;27;81092;-67
2021/04/22 05:24:00;;;;;;;12.10;6.07;;;23.30;44.00;;;;;;6196245;28;80817;-66
2021/04/22 05:27:00;;;;;;;9.60;6.68;;;23.30;44.20;;;;;;6206002;27;80840;-65
2021/04/22 05:30:01;;;;;;;11.73;6.05;;;23.30;43.80;;;;;;6198698;28;80772;-65
2021/04/22 05:33:01;;;;;;;10.07;6.25;;;23.30;44.00;;;;;;6208454;28;81858;-65
2021/04/22 05:36:02;;;;;;;9.13;6.28;;;23.30;44.20;;;;;;6223095;27;81290;-66
2021/04/22 05:39:02;;;;;;;8.88;5.90;;;23.30;44.20;;;;;;6199704;28;80267;-66
2021/04/22 05:42:02;;;;;;;14.35;6.00;;;23.40;44.00;;;;;;6200875;28;80350;-66
2021/04/22 05:45:03;;;;;;;12.35;6.22;;;23.40;43.90;;;;;;6227132;28;80585;-65
2021/04/22 05:48:04;;;;;;;11.80;6.35;;;23.40;44.00;;;;;;6206933;28;80562;-64
2021/04/22 05:51:04;;;;;;;9.10;6.47;;;23.50;44.10;;;;;;6204902;28;80500;-66
2021/04/22 05:54:05;;;;;;;10.82;6.53;;;23.50;43.70;;;;;;6198865;27;82951;-66
2021/04/22 05:57:05;;;;;;;10.45;5.85;;;23.50;43.70;;;;;;6205509;28;80830;-63
2021/04/22 06:00:06;;;;;;;16.42;6.95;;;23.40;43.60;;;;;;6212010;27;83145;-63
2021/04/22 06:03:08;;;;;;;10.93;6.30;;;23.50;43.40;;;;;;6206162;27;80920;-62
2021/04/22 06:06:08;;;;;;;12.52;6.82;;;23.40;43.10;;;;;;6207882;28;80745;-63
2021/04/22 06:09:09;;;;;;;12.13;6.10;;;23.50;43.00;;;;;;6217083;28;80293;-62
2021/04/22 06:12:09;;;;;;;12.88;6.95;;;23.40;43.20;;;;;;6232087;27;80286;-64
2021/04/22 06:15:10;;;;;;;28.30;6.15;;;23.50;43.10;;;;;;6230195;27;82222;-66
2021/04/22 06:18:10;;;;;;;14.73;7.68;;;23.50;43.00;;;;;;6197864;27;80684;-65
2021/04/22 06:21:12;;;;;;;13.52;7.25;;;23.50;43.10;;;;;;6192681;28;81560;-65
2021/04/22 06:24:12;;;;;;;20.33;10.40;;;23.50;43.10;;;;;;6209481;28;80460;-66
2021/04/22 06:27:13;;;;;;;18.15;10.60;;;23.40;40.70;;;;;;6199673;27;83223;-64
2021/04/22 06:30:14;;;;;;;24.45;11.63;;;23.40;40.20;;;;;;6204320;28;83699;-64
2021/04/22 06:33:14;;;;;;;19.65;12.05;;;23.30;41.10;;;;;;6195189;28;84135;-65
2021/04/22 06:36:15;;;;;;;25.48;12.13;;;23.30;39.50;;;;;;6202678;28;84806;-65
2021/04/22 06:39:15;;;;;;;21.58;12.93;;;23.20;39.00;;;;;;6196894;28;83296;-64
2021/04/22 06:42:16;;;;;;;20.20;12.15;;;23.10;38.40;;;;;;6197495;28;85475;-64
2021/04/22 06:45:16;;;;;;;20.70;12.30;;;23.10;38.30;;;;;;6211243;27;84528;-65
2021/04/22 06:48:17;;;;;;;19.00;11.82;;;23.10;37.90;;;;;;6201262;28;83721;-64
2021/04/22 06:51:17;;;;;;;24.88;13.88;;;23.00;38.40;;;;;;6196891;28;84573;-64
2021/04/22 06:54:18;;;;;;;21.65;13.02;;;23.10;37.90;;;;;;6195373;27;82982;-64
2021/04/22 06:57:18;;;;;;;19.90;11.75;;;23.00;37.70;;;;;;6194298;27;83601;-64
2021/04/22 07:00:19;;;;;;;24.42;12.90;;;23.00;37.40;;;;;;6189813;28;83210;-64
2021/04/22 07:03:20;;;;;;;21.67;12.80;;;23.00;37.10;;;;;;6191217;28;86825;-64
2021/04/22 07:06:20;;;;;;;18.42;12.15;;;22.90;37.00;;;;;;6200717;28;83172;-64
2021/04/22 07:09:21;;;;;;;22.85;12.45;;;23.00;36.90;;;;;;6207341;28;83651;-64
2021/04/22 07:12:22;;;;;;;20.85;12.40;;;22.90;36.80;;;;;;6195535;27;83242;-64
2021/04/22 07:15:22;;;;;;;19.95;11.63;;;22.90;36.60;;;;;;6210227;28;83151;-64
2021/04/22 07:18:23;;;;;;;22.17;12.75;;;22.90;36.70;;;;;;6209025;28;87378;-64
2021/04/22 07:21:23;;;;;;;29.70;13.30;;;22.90;36.70;;;;;;6200159;28;83220;-64
2021/04/22 07:24:24;;;;;;;27.25;14.38;;;22.90;36.50;;;;;;6197702;27;84221;-64
2021/04/22 07:27:25;;;;;;;24.30;12.68;;;22.90;36.50;;;;;;6188258;28;83407;-64
2021/04/22 07:30:25;;;;;;;21.85;13.05;;;22.90;36.70;;;;;;6207364;28;83064;-64
2021/04/22 07:33:26;;;;;;;27.92;12.85;;;22.90;36.50;;;;;;6202603;27;83978;-64
2021/04/22 07:36:27;;;;;;;23.08;12.73;;;22.90;36.30;;;;;;6206904;28;85029;-64
2021/04/22 07:39:28;;;;;;;20.85;12.70;;;22.90;36.80;;;;;;6201821;28;83405;-66
2021/04/22 07:42:28;;;;;;;19.80;12.13;;;22.90;36.20;;;;;;6187897;28;83190;-63
2021/04/22 07:45:29;;;;;;;21.15;12.13;;;22.80;36.50;;;;;;6192325;28;82937;-64
2021/04/22 07:48:29;;;;;;;25.75;13.68;;;22.80;36.20;;;;;;6188422;28;83454;-63
2021/04/22 07:51:30;;;;;;;21.45;13.48;;;22.80;36.10;;;;;;6208529;28;83349;-64
2021/04/22 07:54:30;;;;;;;22.00;13.13;;;22.70;35.90;;;;;;6197750;28;82941;-64
2021/04/22 07:57:31;;;;;;;25.52;13.70;;;22.70;36.00;;;;;;6199151;28;83214;-63
2021/04/22 08:00:32;;;;;;;19.38;12.13;;;22.70;36.00;;;;;;6204495;28;82894;-64
2021/04/22 08:03:32;;;;;;;18.48;13.10;;;22.70;35.90;;;;;;6203381;28;83139;-64
2021/04/22 08:06:33;;;;;;;22.75;14.05;;;22.70;35.80;;;;;;6205781;27;82915;-64
2021/04/22 08:09:34;;;;;;;26.27;14.10;;;22.60;35.80;;;;;;6195748;27;83082;-64
2021/04/22 08:12:34;;;;;;;24.75;13.57;;;22.60;35.80;;;;;;6198028;28;84243;-65
2021/04/22 08:15:35;;;;;;;26.67;14.35;;;22.60;35.80;;;;;;6217277;28;83369;-64
2021/04/22 08:18:39;;;;;;;21.98;13.20;;;22.60;35.80;;;;;;6216138;27;84255;-64
2021/04/22 08:21:39;;;;;;;24.52;13.88;;;22.60;36.10;;;;;;6201272;27;83415;-64
2021/04/22 08:24:40;;;;;;;24.00;14.48;;;22.50;35.70;;;;;;6191570;28;84094;-64
2021/04/22 08:27:40;;;;;;;23.70;15.05;;;22.60;35.90;;;;;;6189937;28;84261;-64
2021/04/22 08:30:43;;;;;;;23.30;13.25;;;22.50;35.60;;;;;;6194889;27;83292;-63
2021/04/22 08:33:44;;;;;;;21.38;12.88;;;22.40;36.30;;;;;;6191980;28;84431;-64
2021/04/22 08:36:45;;;;;;;30.92;11.93;;;22.50;37.40;;;;;;6188756;27;83471;-64
2021/04/22 08:39:45;;;;;;;21.73;11.57;;;22.60;37.70;;;;;;6190876;28;83396;-65
2021/04/22 08:42:46;;;;;;;23.75;10.90;;;22.60;37.40;;;;;;6202945;27;83708;-64
2021/04/22 08:45:47;;;;;;;15.10;9.40;;;22.70;37.10;;;;;;6196574;28;83224;-65
2021/04/22 08:48:47;;;;;;;17.00;10.18;;;22.80;37.00;;;;;;6218106;28;82920;-65
2021/04/22 08:51:48;;;;;;;16.83;9.95;;;22.80;37.20;;;;;;6216029;27;89393;-65
2021/04/22 08:54:48;;;;;;;19.48;10.02;;;22.80;37.20;;;;;;6227887;28;83174;-65
2021/04/22 08:57:51;;;;;;;17.08;9.38;;;22.80;37.10;;;;;;6227583;28;82981;-65
2021/04/22 09:00:52;;;;;;;17.75;9.02;;;22.80;37.40;;;;;;6228823;28;82714;-66
2021/04/22 09:03:53;;;;;;;17.77;8.63;;;22.80;38.30;;;;;;6210604;28;80179;-65
2021/04/22 09:06:53;;;;;;;14.10;7.65;;;22.90;38.30;;;;;;6201789;27;80406;-65
2021/04/22 09:09:54;;;;;;;16.02;7.60;;;22.90;38.90;;;;;;6224585;27;80242;-65
2021/04/22 09:12:54;;;;;;;12.07;7.15;;;22.90;39.00;;;;;;6224210;27;80734;-65
2021/04/22 09:15:55;;;;;;;11.23;7.25;;;22.90;38.40;;;;;;6226866;27;80762;-65
2021/04/22 09:18:55;;;;;;;12.15;7.20;;;23.00;38.00;;;;;;6227427;28;80821;-63
2021/04/22 09:21:56;;;;;;;13.85;7.50;;;22.90;38.10;;;;;;6207075;28;81515;-65
2021/04/22 09:24:57;;;;;;;11.82;7.38;;;23.00;39.90;;;;;;6202471;28;81395;-65
2021/04/22 09:27:57;;;;;;;11.40;6.53;;;22.90;42.10;;;;;;6217845;28;80822;-64
2021/04/22 09:30:58;;;;;;;13.55;6.72;;;23.00;41.80;;;;;;6211363;27;80952;-64
2021/04/22 09:33:58;;;;;;;10.98;6.65;;;23.00;43.30;;;;;;6200746;28;80564;-64
2021/04/22 09:36:59;;;;;;;10.02;5.20;;;23.10;42.20;;;;;;6207647;27;80375;-64
2021/04/22 09:39:59;;;;;;;10.13;5.50;;;23.10;41.20;;;;;;6222355;28;80852;-64
2021/04/22 09:43:00;;;;;;;10.63;5.28;;;23.10;43.80;;;;;;6242120;28;81815;-63
2021/04/22 09:46:00;;;;;;;9.32;5.72;;;23.20;47.10;;;;;;6205832;28;81414;-65
2021/04/22 09:49:01;;;;;;;9.85;5.15;;;23.20;50.60;;;;;;6203659;27;80629;-65
2021/04/22 09:52:01;;;;;;;8.27;5.20;;;23.20;48.50;;;;;;6212692;28;83583;-65
2021/04/22 09:55:03;;;;;;;7.65;5.18;;;23.20;50.90;;;;;;6220125;28;81363;-65
2021/04/22 09:58:03;;;;;;;8.50;4.30;;;23.20;49.30;;;;;;6222818;27;81714;-66
2021/04/22 10:01:04;;;;;;;6.90;4.38;;;23.20;47.20;;;;;;6204346;28;80361;-65
2021/04/22 10:04:04;;;;;;;8.95;4.18;;;23.20;46.60;;;;;;6207832;28;81899;-65
2021/04/22 10:07:06;;;;;;;7.10;3.85;;;23.20;46.60;;;;;;6199708;27;80383;-66
2021/04/22 10:10:07;;;;;;;5.47;3.53;;;23.20;46.80;;;;;;6193837;28;80374;-65
2021/04/22 10:13:07;;;;;;;7.57;3.33;;;23.20;44.30;;;;;;6203196;28;81645;-64
2021/04/22 10:16:08;;;;;;;6.57;3.40;;;23.20;43.10;;;;;;6201217;28;80376;-64
2021/04/22 10:19:08;;;;;;;5.68;3.13;;;23.20;43.10;;;;;;6214619;28;80798;-64
2021/04/22 10:22:09;;;;;;;4.15;3.10;;;23.20;44.30;;;;;;6201071;27;80335;-64
2021/04/22 10:25:09;;;;;;;4.30;2.97;;;23.20;43.50;;;;;;6202482;27;81714;-64
2021/04/22 10:28:10;;;;;;;7.57;3.10;;;23.20;43.80;;;;;;6198495;27;81151;-64
2021/04/22 10:31:10;;;;;;;4.85;2.80;;;23.20;43.10;;;;;;6194206;28;80970;-63
2021/04/22 10:34:11;;;;;;;5.72;2.88;;;23.20;43.60;;;;;;6205559;28;80997;-63
2021/04/22 10:37:11;;;;;;;5.22;3.17;;;23.20;43.50;;;;;;6201809;27;81412;-64
2021/04/22 10:40:12;;;;;;;3.90;3.00;;;23.20;43.70;;;;;;6196362;28;80778;-63
2021/04/22 10:43:13;;;;;;;5.60;3.17;;;23.20;43.20;;;;;;6237681;28;83229;-63
2021/04/22 10:46:16;;;;;;;4.45;2.80;;;23.20;43.20;;;;;;6211282;28;81075;-65
2021/04/22 10:49:16;;;;;;;5.78;2.45;;;23.20;43.70;;;;;;6205971;27;80438;-62
2021/04/22 10:52:17;;;;;;;4.20;2.70;;;23.20;43.00;;;;;;6198636;28;81245;-62
2021/04/22 10:55:18;;;;;;;3.85;2.83;;;23.20;42.60;;;;;;6193680;28;81413;-64
2021/04/22 10:58:18;;;;;;;7.75;2.60;;;23.20;42.50;;;;;;6217474;27;80382;-64
2021/04/22 11:01:19;;;;;;;5.70;3.50;;;23.20;42.40;;;;;;6220699;27;81539;-65
2021/04/22 11:04:19;;;;;;;5.95;3.00;;;23.20;42.30;;;;;;6209582;28;80618;-65
2021/04/22 11:07:21;;;;;;;4.57;3.30;;;23.20;42.20;;;;;;6199195;28;80644;-66
2021/04/22 11:10:21;;;;;;;6.68;3.97;;;23.20;42.30;;;;;;6196644;28;80120;-65
2021/04/22 11:13:22;;;;;;;4.75;3.60;;;23.20;42.60;;;;;;6199913;28;80608;-65
2021/04/22 11:28:28;;;;;;;14.02;10.40;;;23.20;42.00;;;;;;6314329;27;75260;-63
2021/04/22 11:31:28;;;;;;;16.05;13.45;;;23.20;44.00;;;;;;6213479;27;93602;-64
2021/04/22 11:34:29;;;;;;;18.02;13.32;;;23.30;43.40;;;;;;6244502;27;84093;-64
2021/04/22 11:37:30;;;;;;;13.15;11.77;;;23.40;42.90;;;;;;6240211;28;86189;-65
2021/04/22 11:40:30;;;;;;;15.07;12.05;;;23.40;42.60;;;;;;6245701;27;84425;-64
2021/04/22 11:43:31;;;;;;;10.57;9.55;;;23.40;42.20;;;;;;6240650;27;83636;-67
2021/04/22 11:46:31;;;;;;;10.98;9.43;;;23.50;42.00;;;;;;6242750;28;81777;-66
2021/04/22 11:49:32;;;;;;;13.88;8.95;;;23.50;41.70;;;;;;6263128;27;81184;-64
2021/04/22 11:52:33;;;;;;;11.57;7.82;;;23.50;41.40;;;;;;6232000;27;82702;-66
2021/04/22 11:55:34;;;;;;;9.23;7.20;;;23.50;41.30;;;;;;6243605;27;80407;-65
2021/04/22 11:58:35;;;;;;;8.32;7.10;;;23.50;41.10;;;;;;6244865;27;80431;-65
2021/04/22 12:01:35;;;;;;;9.20;6.78;;;23.50;40.90;;;;;;6237093;27;80504;-64
2021/04/22 12:04:36;;;;;;;8.68;6.43;;;23.50;40.90;;;;;;6240820;27;82729;-64
2021/04/22 12:07:36;;;;;;;8.95;6.18;;;23.40;40.80;;;;;;6245845;27;80438;-63
2021/04/22 12:10:37;;;;;;;9.20;6.15;;;23.50;40.70;;;;;;6249053;27;80367;-66
2021/04/22 12:13:38;;;;;;;8.57;6.00;;;23.50;40.70;;;;;;6248711;27;81771;-67
2021/04/22 12:16:38;;;;;;;7.90;5.13;;;23.40;41.20;;;;;;6233231;27;81575;-65
2021/04/22 12:19:39;;;;;;;8.25;5.55;;;23.40;40.50;;;;;;6222942;28;80390;-64
2021/04/22 12:22:39;;;;;;;9.35;5.47;;;23.40;40.30;;;;;;6223764;27;80465;-63
2021/04/22 12:25:41;;;;;;;9.32;5.25;;;23.40;40.30;;;;;;6219862;28;81268;-65
2021/04/22 12:28:41;;;;;;;6.75;4.95;;;23.40;40.40;;;;;;6235190;28;80593;-66
2021/04/22 12:31:42;;;;;;;7.72;4.55;;;23.40;40.40;;;;;;6206739;28;80401;-66
2021/04/22 12:34:43;;;;;;;6.55;3.78;;;23.40;40.50;;;;;;6214337;28;81475;-65
2021/04/22 12:37:43;;;;;;;8.98;4.63;;;23.40;40.40;;;;;;6233621;28;80557;-65
2021/04/22 12:40:44;;;;;;;6.72;4.03;;;23.40;40.30;;;;;;6230139;28;80633;-65
2021/04/22 12:43:45;;;;;;;8.95;4.40;;;23.40;40.10;;;;;;6231907;28;81001;-65
2021/04/22 12:46:45;;;;;;;6.60;3.67;;;23.40;40.10;;;;;;6231963;28;80417;-65
2021/04/22 12:49:46;;;;;;;8.02;4.18;;;23.40;40.50;;;;;;6228459;28;81042;-66
2021/04/22 12:52:46;;;;;;;8.25;4.18;;;23.40;40.10;;;;;;6222394;28;80545;-64
2021/04/22 12:55:47;;;;;;;8.13;4.45;;;23.40;39.90;;;;;;6228547;28;80975;-64
2021/04/22 12:58:49;;;;;;;6.30;3.70;;;23.40;39.40;;;;;;6230976;28;80585;-65
2021/04/22 13:01:50;;;;;;;8.75;4.15;;;23.40;39.20;;;;;;6230791;28;81544;-64
2021/04/22 13:04:50;;;;;;;8.50;4.22;;;23.50;39.00;;;;;;6230838;28;80499;-64
2021/04/22 13:07:51;;;;;;;8.00;4.38;;;23.50;39.00;;;;;;6232792;28;80956;-65
2021/04/22 13:10:52;;;;;;;7.40;4.10;;;23.50;39.10;;;;;;6229096;28;81348;-64
2021/04/22 13:13:53;;;;;;;8.65;4.13;;;23.50;39.00;;;;;;6231869;28;80401;-64
2021/04/22 13:16:53;;;;;;;6.68;3.88;;;23.50;39.10;;;;;;6227544;28;82316;-64
2021/04/22 13:19:54;;;;;;;7.38;4.30;;;23.50;39.00;;;;;;6212337;28;81286;-65
2021/04/22 13:22:54;;;;;;;8.38;5.05;;;23.50;39.90;;;;;;6229564;28;80556;-65
2021/04/22 13:25:55;;;;;;;8.13;4.72;;;23.40;39.20;;;;;;6228627;28;80270;-65
2021/04/22 13:28:57;;;;;;;8.80;4.60;;;23.50;38.80;;;;;;6226035;28;82326;-65
2021/04/22 13:31:57;;;;;;;8.30;4.43;;;23.50;38.50;;;;;;6229433;28;80246;-65
2021/04/22 13:34:58;;;;;;;7.53;5.07;;;23.50;38.70;;;;;;6230526;28;80898;-66
2021/04/22 13:37:58;;;;;;;7.10;4.05;;;23.50;38.70;;;;;;6226859;28;82829;-65
2021/04/22 13:40:59;;;;;;;9.10;4.63;;;23.50;38.80;;;;;;6230898;28;81239;-65
2021/04/22 13:43:59;;;;;;;7.63;4.60;;;23.50;38.70;;;;;;6229477;28;80799;-65
2021/04/22 13:47:00;;;;;;;8.20;4.68;;;23.50;38.20;;;;;;6230332;28;80399;-65
2021/04/22 13:50:00;;;;;;;14.05;5.25;;;23.50;38.20;;;;;;6226423;28;80340;-65
2021/04/22 13:53:01;;;;;;;9.05;4.28;;;23.50;37.70;;;;;;6230919;28;80681;-65
2021/04/22 13:56:02;;;;;;;9.98;4.88;;;23.50;37.50;;;;;;6230120;28;80638;-64
2021/04/22 13:59:02;;;;;;;9.63;5.00;;;23.50;37.40;;;;;;6225128;28;80777;-64
2021/04/22 14:02:03;;;;;;;10.20;4.95;;;23.50;37.40;;;;;;6230331;28;81038;-64
2021/04/22 14:05:03;;;;;;;10.60;4.63;;;23.50;37.30;;;;;;6229089;28;82576;-64
2021/04/22 14:08:04;;;;;;;15.10;6.28;;;23.50;36.80;;;;;;6213158;28;83447;-64
2021/04/22 14:11:04;;;;;;;11.88;5.57;;;23.50;37.00;;;;;;6213933;28;82930;-65
2021/04/22 14:14:05;;;;;;;9.88;5.30;;;23.50;36.60;;;;;;6207232;28;81348;-64
2021/04/22 14:17:07;;;;;;;11.05;4.95;;;23.60;36.70;;;;;;6230274;28;87031;-64
2021/04/22 14:20:08;;;;;;;22.30;5.55;;;23.50;36.30;;;;;;6212928;28;82969;-64
2021/04/22 14:23:08;;;;;;;14.23;6.05;;;23.50;36.40;;;;;;6229133;28;80382;-64
2021/04/22 14:26:09;;;;;;;13.88;6.15;;;23.50;36.20;;;;;;6228076;28;80190;-65
2021/04/22 14:29:13;;;;;;;16.58;5.75;;;23.50;36.30;;;;;;6223219;28;81960;-64
2021/04/22 14:32:14;;;;;;;14.10;5.70;;;23.50;36.50;;;;;;6230760;28;80246;-64
2021/04/22 14:35:14;;;;;;;14.70;5.90;;;23.50;36.40;;;;;;6212371;28;82529;-64
2021/04/22 14:38:15;;;;;;;11.75;5.55;;;23.50;36.60;;;;;;6230778;28;80342;-64
2021/04/22 14:41:15;;;;;;;10.02;5.32;;;23.50;35.80;;;;;;6227936;28;80997;-64
2021/04/22 14:44:16;;;;;;;16.35;7.63;;;23.50;35.90;;;;;;6229835;28;80380;-64
2021/04/22 14:47:17;;;;;;;12.40;5.55;;;23.50;35.70;;;;;;6229876;28;87069;-65
2021/04/22 14:50:17;;;;;;;16.90;6.30;;;23.50;35.60;;;;;;6229886;28;82052;-64
2021/04/22 14:53:18;;;;;;;13.27;5.70;;;23.50;35.30;;;;;;6223595;28;80704;-65
2021/04/22 14:56:18;;;;;;;12.00;5.13;;;23.50;35.50;;;;;;6229015;28;80983;-63
2021/04/22 14:59:19;;;;;;;14.73;5.75;;;23.50;35.60;;;;;;6225545;28;81548;-65
2021/04/22 15:02:20;;;;;;;11.73;5.97;;;23.50;35.80;;;;;;6226124;28;80225;-64
2021/04/22 15:05:21;;;;;;;10.32;6.35;;;23.50;35.40;;;;;;6226821;28;81475;-65
2021/04/22 15:08:21;;;;;;;16.60;5.70;;;23.50;35.40;;;;;;6204466;28;83153;-64
2021/04/22 15:11:22;;;;;;;13.05;5.15;;;23.50;35.40;;;;;;6227161;28;82435;-65
2021/04/22 15:14:22;;;;;;;9.93;5.55;;;23.40;35.00;;;;;;6227318;28;81320;-65
2021/04/22 15:17:23;;;;;;;12.55;6.25;;;23.50;35.40;;;;;;6230491;28;80302;-64
2021/04/22 15:20:23;;;;;;;11.52;5.45;;;23.40;35.10;;;;;;6228025;28;81389;-65
2021/04/22 15:23:24;;;;;;;12.02;5.57;;;23.50;35.50;;;;;;6229664;28;80362;-65
2021/04/22 15:26:24;;;;;;;11.18;5.60;;;23.50;35.00;;;;;;6219858;28;82763;-65
2021/04/22 15:29:25;;;;;;;12.38;5.65;;;23.40;35.00;;;;;;6229595;28;80323;-66
2021/04/22 15:32:25;;;;;;;9.45;5.30;;;23.50;35.30;;;;;;6219817;28;81123;-67
2021/04/22 15:35:26;;;;;;;13.30;6.13;;;23.50;35.60;;;;;;6230778;28;80962;-65
2021/04/22 15:38:27;;;;;;;11.88;5.97;;;23.50;35.70;;;;;;6223077;28;82870;-65
2021/04/22 15:41:27;;;;;;;9.73;5.00;;;23.40;35.40;;;;;;6228744;28;80213;-65